Latest Weather Observations for Yulara

IDD60801

Issued at 7:31 am CST Tuesday 26 September 2017 (issued every 30 minutes, with the page automatically refreshed every 10 minutes)

About weather observations | Map of weather stations | Latest weather observations for NT | Other Formats
Station Details ID: 015635 Name: YULARA AIRPORT Lat: -25.19 Lon: 130.97 Height: 492.0 m
Data from the previous 72 hours. | See also: Recent months at Yulara
Date/Time
CST
Temp
°C
App
Temp
°C
Dew
Point
°C
Rel
Hum
%
Delta-T
°C
Wind Press
QNH
hPa
Press
MSL
hPa
Rain since
9am
mm
Dir  Spd
km/h
Gust
km/h
Spd
kts
Gust
kts
26/07:30am 18.2 14.0 1.7 33 7.6 NNW 13 17 7 9 1012.0 1010.2 0.0
26/07:00am 15.8 12.2 0.8 36 6.7 NNW 9 11 5 6 1011.5 1009.7 0.0
26/06:30am 14.6 10.6 0.5 38 6.2 NNW 11 13 6 7 1011.2 1009.4 0.0
26/06:00am 14.9 11.2 0.0 36 6.5 NNW 9 11 5 6 1010.7 1008.8 0.0
26/05:30am 15.3 12.0 -0.1 35 6.7 NW 7 9 4 5 1010.4 1008.5 0.0
26/05:00am 16.3 12.6 0.0 33 7.2 NW 9 11 5 6 1010.1 1008.3 0.0
26/04:30am 17.0 13.0 0.2 32 7.5 NW 11 11 6 6 1010.0 1008.2 0.0
26/04:00am 17.4 13.3 -0.3 30 7.8 NW 11 13 6 7 1010.1 1008.3 0.0
26/03:30am 17.9 14.1 -0.4 29 8.1 NW 9 13 5 7 1010.1 1008.3 0.0
26/03:00am 18.5 14.4 -0.3 28 8.4 NW 11 13 6 7 1010.2 1008.4 0.0
26/02:30am 19.0 15.2 -0.9 26 8.8 NW 9 11 5 6 1010.2 1008.4 0.0
26/02:00am 19.0 15.1 -1.4 25 8.9 NW 9 11 5 6 1010.2 1008.4 0.0
26/01:30am 18.6 15.2 -1.8 25 8.8 NW 6 9 3 5 1010.4 1008.5 0.0
26/01:00am 19.2 15.2 -2.4 23 9.3 NW 9 11 5 6 1010.6 1008.7 0.0
26/12:30am 19.3 15.2 -2.9 22 9.5 NW 9 9 5 5 1010.5 1008.6 0.0
26/12:00am 20.1 16.0 -2.9 21 9.9 NW 9 13 5 7 1010.5 1008.6 0.0
 
Date/Time
CST
Temp
°C
App
Temp
°C
Dew
Point
°C
Rel
Hum
%
Delta-T
°C
Wind Press
QNH
hPa
Press
MSL
hPa
Rain since
9am
mm
Dir  Spd
km/h
Gust
km/h
Spd
kts
Gust
kts
25/11:30pm 19.5 15.4 -3.4 21 9.7 NNW 9 9 5 5 1010.5 1008.6 0.0
25/11:00pm 19.4 15.6 -3.5 21 9.6 NW 7 9 4 5 1010.5 1008.6 0.0
25/10:30pm 19.2 15.5 -4.3 20 9.7 NW 6 7 3 4 1010.6 1008.7 0.0
25/10:00pm 19.9 16.0 -4.4 19 10.1 WNW 7 9 4 5 1010.5 1008.6 0.0
25/09:30pm 22.0 18.3 -4.9 16 11.3 NW 6 7 3 4 1010.0 1008.2 0.0
25/09:00pm 24.0 20.0 -6.1 13 12.6 NW 7 11 4 6 1009.7 1007.9 0.0
25/08:30pm 25.1 20.3 -6.3 12 13.2 NW 11 13 6 7 1009.3 1007.5 0.0
25/08:00pm 26.5 21.6 -7.6 10 14.2 NW 11 13 6 7 1009.0 1007.1 0.0
25/07:30pm 28.0 23.0 -7.8 9 15.1 NW 11 13 6 7 1008.5 1006.6 0.0
25/07:00pm 30.6 23.6 -7.4 8 16.4 NW 22 30 12 16 1008.2 1006.3 0.0
25/06:30pm 31.8 24.7 -8.2 7 17.3 NW 22 33 12 18 1007.8 1006.0 0.0
25/06:00pm 32.8 23.9 -7.5 7 17.8 NW 32 43 17 23 1007.6 1005.8 0.0
25/05:30pm 33.3 24.2 -7.1 7 18.0 WNW 33 52 18 28 1007.5 1005.7 0.0
25/05:21pm 33.2 24.1 -7.2 7 17.9 WNW 33 52 18 28 1007.5 1005.7 0.0
25/05:00pm 33.6 24.2 -6.9 7 18.1 NW 35 52 19 28 1007.4 1005.6 0.0
25/04:30pm 33.7 24.3 -6.8 7 18.2 WNW 35 59 19 32 1007.4 1005.6 0.0
25/04:29pm 33.8 24.2 -8.7 6 18.5 WNW 35 59 19 32 1007.4 1005.6 0.0
25/04:28pm 33.8 24.7 -6.8 7 18.2 WNW 33 59 18 32 1007.3 1005.5 0.0
25/04:20pm 33.6 23.8 -6.9 7 18.1 NW 37 52 20 28 1007.4 1005.6 0.0
25/04:00pm 33.7 23.9 -6.8 7 18.1 NW 37 50 20 27 1007.4 1005.6 0.0
25/03:31pm 34.0 25.0 -8.6 6 18.6 NW 32 50 17 27 1007.4 1005.6 0.0
25/03:30pm 34.1 25.1 -8.5 6 18.7 NW 32 46 17 25 1007.4 1005.6 0.0
25/03:00pm 33.7 24.8 -6.8 7 18.2 NW 32 56 17 30 1007.7 1005.9 0.0
25/02:32pm 33.6 24.7 -6.9 7 18.1 WNW 32 50 17 27 1008.3 1006.4 0.0
25/02:30pm 33.4 24.5 -7.0 7 18.0 WNW 32 44 17 24 1008.2 1006.3 0.0
25/02:00pm 33.0 23.9 -7.3 7 17.8 NW 33 52 18 28 1008.7 1006.8 0.0
25/01:38pm 32.5 22.6 -7.7 7 17.6 NW 37 56 20 30 1009.0 1007.1 0.0
25/01:30pm 33.1 23.6 -7.3 7 17.9 NW 35 52 19 28 1009.1 1007.3 0.0
25/01:15pm 32.8 23.3 -7.5 7 17.7 NW 35 56 19 30 1009.0 1007.1 0.0
25/01:00pm 32.7 23.7 -5.8 8 17.4 NW 33 50 18 27 1009.3 1007.5 0.0
25/12:30pm 32.3 23.5 -6.1 8 17.2 NNW 32 50 17 27 1009.6 1007.8 0.0
25/12:00pm 31.5 23.2 -5.2 9 16.6 WNW 30 43 16 23 1010.2 1008.4 0.0
25/11:30am 31.0 22.6 -5.5 9 16.4 NW 30 46 16 25 1010.5 1008.6 0.0
25/11:00am 30.7 23.2 -4.4 10 16.0 NW 26 39 14 21 1010.8 1008.9 0.0
25/10:30am 29.5 22.8 -4.0 11 15.2 NW 22 30 12 16 1011.2 1009.4 0.0
25/10:00am 28.1 22.5 -2.9 13 14.2 NNW 17 24 9 13 1011.3 1009.5 0.0
25/09:30am 26.5 21.4 -2.2 15 13.2 NW 15 20 8 11 1011.3 1009.5 0.0
25/09:00am 24.2 18.6 -0.2 20 11.4 NW 19 22 10 12 1011.3 1009.5 0.0
25/08:30am 21.9 16.5 1.0 25 9.8 NW 19 28 10 15 1011.1 1009.3 0.0
25/08:00am 19.5 15.7 1.5 30 8.4 NW 11 17 6 9 1010.7 1008.8 0.0
25/07:30am 17.3 13.9 1.7 35 7.2 NW 9 13 5 7 1010.1 1008.3 0.0
25/07:00am 15.6 12.1 1.4 38 6.4 NW 9 11 5 6 1009.9 1008.1 0.0
25/06:30am 16.2 11.9 1.1 36 6.8 NW 13 15 7 8 1009.5 1007.7 0.0
25/06:00am 16.6 12.4 1.5 36 6.9 NW 13 15 7 8 1009.2 1007.4 0.0
25/05:30am 17.0 13.1 1.4 35 7.1 NW 11 15 6 8 1008.6 1006.7 0.0
25/05:00am 17.6 14.1 1.2 33 7.5 NW 9 13 5 7 1008.3 1006.4 0.0
25/04:30am 19.1 14.9 1.6 31 8.2 NW 13 19 7 10 1007.9 1006.1 0.0
25/04:00am 20.0 15.4 1.4 29 8.7 NW 15 19 8 10 1007.5 1005.7 0.0
25/03:30am 19.8 14.8 1.3 29 8.6 NW 17 22 9 12 1007.4 1005.6 0.0
25/03:00am 18.6 14.7 1.2 31 8.0 NW 11 15 6 8 1007.3 1005.5 0.0
25/02:30am 17.5 13.9 0.6 32 7.6 NW 9 11 5 6 1007.4 1005.6 0.0
25/02:00am 18.0 14.4 0.6 31 7.9 NW 9 9 5 5 1007.5 1005.7 0.0
25/01:30am 18.5 15.3 0.6 30 8.1 NNW 7 9 4 5 1007.5 1005.7 0.0
25/01:00am 18.7 15.4 0.3 29 8.3 NW 7 9 4 5 1007.7 1005.9 0.0
25/12:30am 19.6 16.4 0.6 28 8.7 NW 7 9 4 5 1008.0 1006.2 0.0
25/12:00am 19.6 15.6 0.6 28 8.7 NW 11 15 6 8 1008.4 1006.5 0.0
 
Date/Time
CST
Temp
°C
App
Temp
°C
Dew
Point
°C
Rel
Hum
%
Delta-T
°C
Wind Press
QNH
hPa
Press
MSL
hPa
Rain since
9am
mm
Dir  Spd
km/h
Gust
km/h
Spd
kts
Gust
kts
24/11:30pm 20.4 16.8 0.8 27 9.1 NNW 9 11 5 6 1008.6 1006.7 0.0
24/11:00pm 19.4 16.3 -0.1 27 8.8 NNW 6 9 3 5 1009.0 1007.1 0.0
24/10:30pm 21.9 18.6 -0.1 23 10.1 NW 7 9 4 5 1009.1 1007.3 0.0
24/10:00pm 23.8 19.5 0.8 22 10.9 N 13 15 7 8 1009.2 1007.4 0.0
24/09:30pm 22.6 19.3 -0.2 22 10.5 NNW 7 9 4 5 1008.9 1007.0 0.0
24/09:00pm 24.5 20.8 0.1 20 11.5 NNW 9 11 5 6 1008.6 1006.7 0.0
24/08:30pm 26.2 22.4 -0.8 17 12.7 WNW 9 9 5 5 1008.2 1006.3 0.0
24/08:00pm 27.9 23.8 -0.2 16 13.5 WNW 11 13 6 7 1007.7 1005.9 0.0
24/07:30pm 29.3 24.7 -0.9 14 14.5 WNW 13 19 7 10 1007.3 1005.5 0.0
24/07:00pm 30.8 25.1 -0.8 13 15.3 NW 19 28 10 15 1006.9 1005.0 0.0
24/06:30pm 32.2 24.4 -0.8 12 16.2 NW 30 39 16 21 1006.6 1004.7 0.0
24/06:08pm 32.7 24.8 -1.6 11 16.6 NW 30 48 16 26 1006.4 1004.5 0.0
24/06:00pm 32.9 26.9 -1.4 11 16.7 NW 20 30 11 16 1006.4 1004.5 0.0
24/05:30pm 33.5 25.9 -2.3 10 17.3 NW 28 43 15 23 1006.3 1004.4 0.0
24/05:00pm 33.5 24.4 -3.7 9 17.5 NW 35 56 19 30 1006.4 1004.5 0.0
24/04:42pm 33.6 24.5 -3.6 9 17.5 NW 35 54 19 29 1006.4 1004.5 0.0
24/04:30pm 33.8 25.3 -2.0 10 17.4 NW 33 48 18 26 1006.3 1004.4 0.0
24/04:16pm 34.1 25.2 -1.8 10 17.5 NW 35 57 19 31 1006.4 1004.5 0.0
24/04:14pm 33.9 25.4 -2.0 10 17.4 NW 33 57 18 31 1006.5 1004.6 0.0
24/04:00pm 34.5 25.7 -1.5 10 17.7 WNW 35 50 19 27 1006.7 1004.8 0.0
24/03:30pm 33.9 25.4 -2.0 10 17.5 NW 33 52 18 28 1007.1 1005.2 0.0
24/03:00pm 33.2 24.6 -2.5 10 17.1 NW 33 57 18 31 1007.5 1005.7 0.0
24/02:39pm 33.1 25.6 -1.3 11 16.8 NW 28 56 15 30 1007.7 1005.9 0.0
24/02:30pm 32.9 25.6 -0.2 12 16.5 NNW 28 46 15 25 1007.9 1006.1 0.0
24/02:00pm 32.6 24.8 -0.5 12 16.3 NW 30 48 16 26 1008.5 1006.6 0.0
24/01:42pm 32.5 24.7 -0.5 12 16.3 NW 30 48 16 26 1008.9 1007.0 0.0
24/01:30pm 32.1 24.4 0.2 13 15.9 NW 30 46 16 25 1009.1 1007.3 0.0
24/01:00pm 31.1 25.4 0.5 14 15.2 NNW 20 35 11 19 1009.8 1008.0 0.0
24/12:30pm 30.6 24.5 0.1 14 15.0 NNW 22 33 12 18 1010.5 1008.6 0.0
24/12:00pm 29.9 24.2 0.5 15 14.5 NNE 20 30 11 16 1011.0 1009.2 0.0
24/11:30am 29.3 24.2 0.9 16 14.0 NNE 17 24 9 13 1011.6 1009.8 0.0
24/11:00am 28.0 22.8 -0.1 16 13.5 NE 17 26 9 14 1012.1 1010.3 0.0
24/10:30am 26.1 20.3 0.0 18 12.4 ENE 20 32 11 17 1012.7 1010.9 0.0
24/10:00am 24.8 19.1 0.3 20 11.6 ENE 20 26 11 14 1013.0 1011.2 0.0
24/09:30am 23.6 18.0 0.0 21 11.0 E 19 24 10 13 1013.2 1011.4 0.0
24/09:00am 22.2 17.7 -0.5 22 10.4 ESE 13 19 7 10 1013.2 1011.4 0.0
24/08:30am 19.5 16.0 1.0 29 8.5 SSE 9 13 5 7 1013.0 1011.2 0.0
24/08:00am 16.7 12.8 1.2 35 7.0 S 11 17 6 9 1012.9 1011.1 0.0
24/07:30am 14.0 10.5 1.0 41 5.7 S 9 11 5 6 1012.7 1010.9 0.0
24/07:00am 13.3 9.0 0.7 42 5.5 S 13 15 7 8 1012.3 1010.5 0.0
24/06:30am 12.8 8.5 0.9 44 5.2 SSW 13 15 7 8 1012.2 1010.4 0.0
24/06:00am 12.9 8.5 0.6 43 5.3 S 13 17 7 9 1011.7 1009.9 0.0
24/05:30am 13.5 9.6 0.9 42 5.5 SSW 11 15 6 8 1011.3 1009.5 0.0
24/05:00am 13.6 9.3 0.9 42 5.6 SSW 13 17 7 9 1010.8 1008.9 0.0
24/04:30am 13.6 9.3 0.9 42 5.6 SSW 13 13 7 7 1010.7 1008.8 0.0
24/04:00am 14.1 10.2 1.4 42 5.6 SSW 11 13 6 7 1010.6 1008.7 0.0
24/03:30am 13.7 10.2 1.0 42 5.6 S 9 11 5 6 1010.6 1008.7 0.0
24/03:00am 14.3 11.6 0.6 39 6.0 SE 4 6 2 3 1010.9 1009.1 0.0
24/02:30am 16.3 14.4 0.8 35 6.9 CALM 0 0 0 0 1010.8 1008.9 0.0
24/02:00am 16.8 14.6 1.3 35 7.0 SSW 2 11 1 6 1010.8 1008.9 0.0
24/01:30am 16.0 12.4 0.6 35 6.8 S 9 9 5 5 1010.6 1008.7 0.0
24/01:00am 16.2 12.2 0.3 34 7.0 S 11 11 6 6 1010.6 1008.7 0.0
24/12:30am 17.4 14.2 0.6 32 7.6 WSW 7 9 4 5 1010.8 1008.9 0.0
24/12:00am 19.1 15.5 0.7 29 8.4 W 9 13 5 7 1011.1 1009.3 0.0
 
Date/Time
CST
Temp
°C
App
Temp
°C
Dew
Point
°C
Rel
Hum
%
Delta-T
°C
Wind Press
QNH
hPa
Press
MSL
hPa
Rain since
9am
mm
Dir  Spd
km/h
Gust
km/h
Spd
kts
Gust
kts
23/11:30pm 21.5 17.2 1.2 26 9.6 NW 13 15 7 8 1011.1 1009.3 0.0
23/11:00pm 21.5 17.2 1.2 26 9.5 NW 13 17 7 9 1011.2 1009.4 0.0
23/10:30pm 22.4 18.1 0.9 24 10.1 NW 13 15 7 8 1011.4 1009.6 0.0
23/10:00pm 22.4 18.5 0.9 24 10.1 NW 11 13 6 7 1011.5 1009.7 0.0
23/09:30pm 23.3 19.8 1.0 23 10.6 WNW 9 11 5 6 1011.4 1009.6 0.0
23/09:00pm 24.0 20.0 0.4 21 11.1 NW 11 13 6 7 1011.0 1009.2 0.0
23/08:30pm 25.6 21.7 1.0 20 11.9 NW 11 13 6 7 1010.4 1008.5 0.0
23/08:00pm 26.9 22.5 0.6 18 12.7 NW 13 15 7 8 1009.9 1008.1 0.0
23/07:30pm 28.3 23.9 0.1 16 13.7 NW 13 17 7 9 1009.4 1007.6 0.0
23/07:00pm 29.8 24.5 -0.5 14 14.7 NW 17 22 9 12 1009.2 1007.4 0.0
23/06:30pm 31.2 24.6 -0.5 13 15.5 NW 24 32 13 17 1008.8 1006.9 0.0
23/06:00pm 32.3 24.5 -0.7 12 16.2 NW 30 44 16 24 1008.5 1006.6 0.0
23/05:30pm 32.8 25.1 -0.3 12 16.4 NW 30 44 16 24 1008.3 1006.4 0.0
23/05:14pm 33.0 25.1 -1.4 11 16.8 WNW 30 48 16 26 1008.3 1006.4 0.0
23/05:00pm 33.2 25.7 -1.2 11 16.8 WNW 28 39 15 21 1008.3 1006.4 0.0
23/04:30pm 33.5 25.8 0.2 12 16.7 NW 30 43 16 23 1008.0 1006.2 0.0
23/04:00pm 33.1 25.9 1.0 13 16.3 WNW 28 44 15 24 1008.3 1006.4 0.0
23/03:30pm 33.5 26.2 0.2 12 16.7 WNW 28 41 15 22 1008.4 1006.5 0.0
23/03:00pm 33.8 25.6 0.5 12 16.9 WNW 33 48 18 26 1008.6 1006.7 0.0
23/02:38pm 33.6 26.3 0.3 12 16.7 WNW 28 46 15 25 1008.9 1007.0 0.0
23/02:30pm 33.4 25.9 1.3 13 16.4 WNW 30 46 16 25 1009.0 1007.1 0.0
23/02:21pm 33.6 26.3 0.3 12 16.7 WNW 28 46 15 25 1009.1 1007.3 0.0
23/02:00pm 34.0 27.5 0.6 12 16.9 W 24 35 13 19 1009.2 1007.4 0.0
23/01:30pm 33.2 26.7 0.0 12 16.6 WNW 24 41 13 22 1009.7 1007.9 0.0
23/01:00pm 32.9 28.2 0.9 13 16.2 WNW 15 28 8 15 1009.8 1008.0 0.0
23/12:30pm 31.7 26.1 1.0 14 15.5 WNW 20 30 11 16 1010.4 1008.5 0.0
23/12:00pm 31.8 27.3 0.0 13 15.8 W 13 24 7 13 1010.8 1008.9 0.0
23/11:30am 30.7 26.1 -0.8 13 15.3 SW 13 24 7 13 1011.1 1009.3 0.0
23/11:00am 29.6 23.9 -0.7 14 14.6 SW 19 28 10 15 1011.3 1009.5 0.0
23/10:30am 29.7 23.9 -1.6 13 14.9 SW 19 24 10 13 1011.5 1009.7 0.0
23/10:00am 28.7 22.7 -1.4 14 14.2 SW 20 26 11 14 1011.7 1009.9 0.0
23/09:30am 28.3 21.5 -1.7 14 14.1 SW 24 33 13 18 1011.7 1009.9 0.0
23/09:00am 28.2 23.5 -1.8 14 14.0 WSW 13 24 7 13 1011.6 1009.8 0.0
23/08:30am 26.4 21.8 -1.4 16 12.9 W 13 17 7 9 1011.4 1009.6 0.0
23/08:00am 21.9 17.3 -1.4 21 10.4 NW 13 17 7 9 1011.2 1009.4 0.0

Other Formats:

Comma delimited format used in spreadsheet applications
http://www.bom.gov.au/fwo/IDD60801/IDD60801.94462.axf

JavaScript Object Notation format (JSON) in row-major order
http://www.bom.gov.au/fwo/IDD60801/IDD60801.94462.json